Time;durP1;ratioP1;P1;durP2;ratioP2;P2;SDS_P1;SDS_P2;PMS_P1;PMS_P2;Temp;Humidity;BMP_temperature;BMP_pressure;BME280_temperature;BME280_humidity;BME280_pressure;Samples;Min_cycle;Max_cycle;Signal;HPM_P1;HPM_P2
2022/06/22 00:02:28;;;;;;;9.03;3.20;;;;;;;10.90;100.00;99431.63;4214999;28;21112;-66
2022/06/22 00:05:01;;;;;;;13.90;3.47;;;;;;;10.84;100.00;99432.34;4212714;28;20240;-66
2022/06/22 00:07:35;;;;;;;6.27;3.40;;;;;;;10.82;100.00;99430.84;4212775;28;20297;-67
2022/06/22 00:10:13;;;;;;;8.77;3.33;;;;;;;10.75;100.00;99436.84;4225255;28;21704;-65
2022/06/22 00:12:40;;;;;;;5.60;3.10;;;;;;;10.74;100.00;99445.00;4209063;28;20699;-66
2022/06/22 00:15:23;;;;;;;7.97;3.57;;;;;;;10.76;100.00;99440.34;4201833;28;21510;-67
2022/06/22 00:17:51;;;;;;;7.70;3.23;;;;;;;10.78;100.00;99446.31;4215353;28;20262;-66
2022/06/22 00:20:25;;;;;;;6.13;2.80;;;;;;;10.77;100.00;99450.81;4211612;28;20418;-66
2022/06/22 00:22:58;;;;;;;4.33;2.97;;;;;;;10.60;100.00;99445.69;4194886;28;21750;-66
2022/06/22 00:25:37;;;;;;;6.63;3.10;;;;;;;10.46;100.00;99448.03;4217688;28;22536;-66
2022/06/22 00:28:29;;;;;;;10.03;3.43;;;;;;;10.37;100.00;99446.38;4204802;28;20394;-67
2022/06/22 00:31:03;;;;;;;7.70;3.23;;;;;;;10.32;100.00;99438.09;4238786;28;20524;-65
2022/06/22 00:33:29;;;;;;;4.90;3.00;;;;;;;10.24;100.00;99444.22;4196366;28;21005;-65
2022/06/22 00:36:13;;;;;;;5.67;3.67;;;;;;;10.27;100.00;99453.69;4224112;28;20239;-66
2022/06/22 00:38:40;;;;;;;15.20;6.77;;;;;;;10.14;100.00;99465.66;4210391;28;20244;-65
2022/06/22 00:41:20;;;;;;;10.50;4.20;;;;;;;10.05;100.00;99471.16;4225621;28;20342;-64
2022/06/22 00:43:47;;;;;;;9.97;4.60;;;;;;;9.98;100.00;99473.63;4220137;28;20249;-66
2022/06/22 00:46:18;;;;;;;14.90;5.23;;;;;;;10.04;100.00;99472.94;4201445;28;20302;-66
2022/06/22 00:48:47;;;;;;;9.03;4.20;;;;;;;10.02;100.00;99467.00;4194611;28;20229;-66
2022/06/22 00:51:20;;;;;;;8.33;3.80;;;;;;;10.01;100.00;99464.50;4216822;28;20656;-66
2022/06/22 00:53:55;;;;;;;7.77;4.17;;;;;;;10.00;100.00;99466.31;4213965;28;21582;-65
2022/06/22 00:56:30;;;;;;;10.23;4.37;;;;;;;9.93;100.00;99466.16;4214550;28;20233;-66
2022/06/22 00:59:16;;;;;;;5.47;3.93;;;;;;;9.96;100.00;99466.81;4185673;28;26247;-65
2022/06/22 01:01:51;;;;;;;11.67;4.60;;;;;;;9.82;100.00;99468.28;4207106;28;20236;-66
2022/06/22 01:04:50;;;;;;;7.87;4.50;;;;;;;9.86;100.00;99466.97;4204391;28;20309;-67
2022/06/22 01:07:17;;;;;;;8.63;4.43;;;;;;;10.03;100.00;99465.97;4185705;28;20297;-66
2022/06/22 01:09:49;;;;;;;10.10;4.53;;;;;;;9.88;100.00;99459.66;4216476;28;20232;-67
2022/06/22 01:12:25;;;;;;;7.93;4.40;;;;;;;9.80;100.00;99467.63;4192398;28;20252;-67
2022/06/22 01:14:59;;;;;;;6.83;4.37;;;;;;;9.76;100.00;99460.97;4218443;28;20296;-67
2022/06/22 01:17:37;;;;;;;7.17;4.30;;;;;;;9.84;100.00;99463.66;4201831;28;20420;-66
2022/06/22 01:20:14;;;;;;;8.67;4.53;;;;;;;9.78;100.00;99453.66;4190409;28;20239;-67
2022/06/22 01:23:01;;;;;;;7.67;4.17;;;;;;;9.84;100.00;99448.53;4206241;28;22442;-66
2022/06/22 01:25:46;;;;;;;9.23;4.33;;;;;;;9.72;100.00;99453.34;4202786;28;23703;-65
2022/06/22 01:28:13;;;;;;;9.30;4.30;;;;;;;9.66;100.00;99448.66;4207527;28;20244;-65
2022/06/22 01:30:43;;;;;;;9.30;5.37;;;;;;;9.66;100.00;99453.16;4191759;28;20560;-67
2022/06/22 01:33:19;;;;;;;10.53;4.57;;;;;;;9.67;100.00;99449.50;4180716;28;20328;-67
2022/06/22 01:35:51;;;;;;;6.47;4.27;;;;;;;9.76;100.00;99455.66;4184950;28;20262;-67
2022/06/22 01:38:23;;;;;;;9.50;5.47;;;;;;;9.70;100.00;99447.34;4228286;28;20297;-65
2022/06/22 01:41:16;;;;;;;11.00;6.40;;;;;;;9.60;100.00;99451.13;4198623;28;20236;-65
2022/06/22 01:43:50;;;;;;;8.30;5.10;;;;;;;9.58;100.00;99445.19;4205039;28;20304;-67
2022/06/22 01:46:43;;;;;;;7.20;4.83;;;;;;;9.46;100.00;99439.34;4200613;28;20400;-66
2022/06/22 01:49:19;;;;;;;7.03;4.40;;;;;;;9.47;100.00;99443.66;4157422;28;20233;-65
2022/06/22 01:51:51;;;;;;;8.90;4.90;;;;;;;9.50;100.00;99453.94;4223054;28;21320;-65
2022/06/22 01:54:22;;;;;;;10.43;5.40;;;;;;;9.46;100.00;99457.94;4215575;28;21100;-66
2022/06/22 01:57:11;;;;;;;11.03;4.90;;;;;;;9.45;100.00;99466.88;4200993;28;20652;-65
2022/06/22 01:59:48;;;;;;;17.70;5.17;;;;;;;9.42;100.00;99456.59;4196024;28;21189;-66
2022/06/22 02:02:22;;;;;;;10.63;6.07;;;;;;;9.44;100.00;99449.28;4201964;28;27374;-64
2022/06/22 02:05:04;;;;;;;8.70;5.53;;;;;;;9.20;100.00;99450.88;4217768;28;23405;-66
2022/06/22 02:07:45;;;;;;;10.37;5.37;;;;;;;9.19;100.00;99453.69;4214970;28;20302;-65
2022/06/22 02:10:29;;;;;;;8.67;5.63;;;;;;;9.34;100.00;99449.44;4196766;28;20235;-69
2022/06/22 02:13:01;;;;;;;14.50;5.03;;;;;;;9.42;100.00;99459.25;4223979;28;23587;-67
2022/06/22 02:15:40;;;;;;;10.33;5.63;;;;;;;9.39;100.00;99460.41;4206129;28;21615;-65
2022/06/22 02:18:22;;;;;;;9.00;6.33;;;;;;;9.32;100.00;99466.50;4205825;28;20639;-65
2022/06/22 02:20:48;;;;;;;9.47;5.13;;;;;;;9.28;100.00;99466.81;4200940;28;20302;-65
2022/06/22 02:23:26;;;;;;;11.00;6.07;;;;;;;9.34;100.00;99473.34;4213520;28;20255;-65
2022/06/22 02:25:59;;;;;;;9.80;5.77;;;;;;;9.43;100.00;99468.84;4206854;28;20600;-64
2022/06/22 02:28:26;;;;;;;11.50;5.93;;;;;;;9.37;100.00;99469.53;4229644;28;20228;-65
2022/06/22 02:30:52;;;;;;;15.13;6.03;;;;;;;9.36;100.00;99475.81;4209326;28;20272;-65
2022/06/22 02:33:19;;;;;;;14.77;6.33;;;;;;;9.37;100.00;99477.47;4201783;28;20244;-67
2022/06/22 02:35:46;;;;;;;14.07;5.80;;;;;;;9.38;100.00;99482.63;4212329;28;20241;-67
2022/06/22 02:38:14;;;;;;;14.73;5.90;;;;;;;9.40;100.00;99485.13;4212178;28;20287;-67
2022/06/22 02:46:20;;;;;;;11.30;6.77;;;;;;;9.35;100.00;99490.09;4237880;28;21360;-65
2022/06/22 02:48:52;;;;;;;11.47;6.03;;;;;;;9.37;100.00;99493.41;4211906;28;20426;-65
2022/06/22 02:51:29;;;;;;;10.40;6.43;;;;;;;9.43;100.00;99484.78;4212575;28;20275;-64
2022/06/22 02:53:58;;;;;;;11.67;6.40;;;;;;;9.39;100.00;99491.41;4205693;28;20246;-65
2022/06/22 02:56:32;;;;;;;12.70;6.87;;;;;;;9.52;100.00;99497.09;4221064;28;20470;-66
2022/06/22 02:58:59;;;;;;;11.17;6.73;;;;;;;9.55;100.00;99498.59;4227259;28;20771;-66
2022/06/22 03:01:30;;;;;;;15.23;7.10;;;;;;;9.52;100.00;99497.94;4219566;28;20229;-65
2022/06/22 03:03:58;;;;;;;13.57;7.07;;;;;;;9.55;100.00;99501.25;4220666;28;23225;-66
2022/06/22 03:06:31;;;;;;;13.67;6.57;;;;;;;9.64;100.00;99506.44;4214172;28;20251;-64
2022/06/22 03:09:00;;;;;;;14.03;6.77;;;;;;;9.58;100.00;99501.78;4224320;28;20236;-65
2022/06/22 03:11:28;;;;;;;11.70;6.20;;;;;;;9.67;100.00;99505.31;4208744;28;20237;-65
2022/06/22 03:14:05;;;;;;;15.43;6.57;;;;;;;9.71;100.00;99496.81;4207699;28;21789;-64
2022/06/22 03:16:35;;;;;;;10.53;6.60;;;;;;;9.81;100.00;99491.38;4214253;28;20237;-65
2022/06/22 03:19:06;;;;;;;13.10;6.43;;;;;;;9.89;100.00;99490.56;4202787;28;20313;-65
2022/06/22 03:21:33;;;;;;;8.93;5.73;;;;;;;9.86;100.00;99483.75;4204779;28;21028;-65
2022/06/22 03:24:23;;;;;;;8.70;5.93;;;;;;;9.92;100.00;99488.38;4210216;28;20248;-66
2022/06/22 03:26:59;;;;;;;12.10;5.77;;;;;;;9.91;100.00;99481.41;4231919;28;21651;-68
2022/06/22 03:29:37;;;;;;;14.53;5.77;;;;;;;9.99;100.00;99483.25;4185213;28;23056;-66
2022/06/22 03:32:12;;;;;;;11.43;6.47;;;;;;;10.01;100.00;99486.56;4199040;28;20300;-66
2022/06/22 03:34:43;;;;;;;12.60;6.33;;;;;;;9.97;100.00;99487.06;4205524;28;20233;-65
2022/06/22 03:37:37;;;;;;;15.97;7.03;;;;;;;9.99;100.00;99482.41;4204025;28;20610;-65
2022/06/22 03:40:28;;;;;;;15.70;6.27;;;;;;;10.06;100.00;99488.75;4201436;28;20298;-65
2022/06/22 03:42:59;;;;;;;9.83;6.07;;;;;;;10.17;100.00;99495.56;4225913;28;20240;-67
2022/06/22 03:45:33;;;;;;;12.20;6.10;;;;;;;10.27;100.00;99506.88;4196932;28;20234;-66
2022/06/22 03:48:07;;;;;;;12.13;5.93;;;;;;;10.23;100.00;99510.84;4209599;28;20352;-66
2022/06/22 03:50:50;;;;;;;10.07;6.33;;;;;;;10.43;100.00;99511.38;4215095;28;20320;-67
2022/06/22 03:53:30;;;;;;;11.40;6.00;;;;;;;10.42;100.00;99504.38;4217521;28;21441;-67
2022/06/22 03:56:01;;;;;;;9.20;6.00;;;;;;;10.53;100.00;99510.19;4206233;28;21623;-67
2022/06/22 03:58:29;;;;;;;13.77;6.73;;;;;;;10.73;100.00;99510.69;4210667;28;20229;-66
2022/06/22 04:00:55;;;;;;;10.10;6.57;;;;;;;10.84;100.00;99514.84;4223706;28;20392;-65
2022/06/22 04:03:22;;;;;;;16.73;6.00;;;;;;;10.90;100.00;99516.81;4206011;28;21877;-65
2022/06/22 04:05:52;;;;;;;8.90;5.70;;;;;;;10.98;100.00;99514.16;4217334;28;20232;-66
2022/06/22 04:08:23;;;;;;;10.57;5.90;;;;;;;10.97;100.00;99525.78;4216581;28;21673;-65
2022/06/22 04:10:57;;;;;;;8.87;5.23;;;;;;;11.12;100.00;99527.72;4209671;28;21638;-66
2022/06/22 04:13:40;;;;;;;9.67;5.37;;;;;;;11.15;100.00;99528.22;4204586;28;20739;-66
2022/06/22 04:16:15;;;;;;;12.93;5.40;;;;;;;11.32;100.00;99537.00;4201068;28;20409;-66
2022/06/22 04:18:57;;;;;;;9.37;5.20;;;;;;;11.36;100.00;99534.84;4201161;28;20229;-66
2022/06/22 04:21:28;;;;;;;8.27;5.37;;;;;;;11.49;100.00;99535.09;4202550;28;20237;-65
2022/06/22 04:24:13;;;;;;;11.53;5.20;;;;;;;11.60;100.00;99531.22;4188822;28;20243;-69
2022/06/22 04:26:46;;;;;;;13.17;5.03;;;;;;;11.81;100.00;99520.78;4207574;28;21393;-67
2022/06/22 04:29:20;;;;;;;7.90;4.57;;;;;;;11.79;100.00;99530.78;4225008;28;20240;-66
2022/06/22 04:31:59;;;;;;;6.77;4.57;;;;;;;11.89;100.00;99535.09;4200115;28;20248;-69
2022/06/22 04:34:39;;;;;;;8.77;4.37;;;;;;;12.02;100.00;99536.19;4209061;28;20240;-67
2022/06/22 04:37:10;;;;;;;6.80;3.87;;;;;;;12.12;100.00;99533.28;4190751;28;21125;-69
2022/06/22 04:39:41;;;;;;;7.77;4.13;;;;;;;12.34;100.00;99523.63;4197534;28;20280;-70
2022/06/22 04:42:09;;;;;;;11.30;4.17;;;;;;;12.43;100.00;99517.22;4211027;28;20395;-69
2022/06/22 04:44:43;;;;;;;11.90;3.93;;;;;;;12.60;100.00;99523.25;4209713;28;21203;-68
2022/06/22 04:47:17;;;;;;;6.13;3.37;;;;;;;12.73;100.00;99529.78;4191272;28;26109;-68
2022/06/22 04:49:53;;;;;;;8.57;3.77;;;;;;;12.76;100.00;99537.44;4198755;28;20230;-66
2022/06/22 04:52:42;;;;;;;4.83;3.23;;;;;;;12.76;100.00;99534.75;4224832;28;20232;-68
2022/06/22 04:55:14;;;;;;;10.37;3.60;;;;;;;12.95;100.00;99539.59;4205393;28;20239;-67
2022/06/22 04:57:42;;;;;;;8.67;3.00;;;;;;;12.89;100.00;99535.81;4223475;28;20244;-67
2022/06/22 05:00:14;;;;;;;8.13;3.13;;;;;;;13.01;100.00;99536.19;4212693;28;20245;-71
2022/06/22 05:02:42;;;;;;;13.80;4.50;;;;;;;13.08;100.00;99537.09;4201558;28;20261;-68
2022/06/22 05:05:30;;;;;;;6.27;3.10;;;;;;;13.22;100.00;99537.31;4214418;28;20242;-67
2022/06/22 05:08:15;;;;;;;7.60;2.93;;;;;;;13.43;99.35;99534.75;4189250;28;21379;-67
2022/06/22 05:11:06;;;;;;;7.67;3.00;;;;;;;13.55;99.22;99550.31;4220251;28;20229;-66
2022/06/22 05:13:37;;;;;;;5.80;2.77;;;;;;;13.71;97.41;99552.78;4207524;28;20235;-68
2022/06/22 05:16:07;;;;;;;9.53;2.83;;;;;;;13.88;95.79;99554.25;4201297;28;20259;-68
2022/06/22 05:18:35;;;;;;;9.37;3.00;;;;;;;14.08;94.40;99554.44;4195326;28;20242;-67
2022/06/22 05:21:09;;;;;;;7.27;2.73;;;;;;;14.56;92.72;99556.59;4209465;28;20296;-68
2022/06/22 05:23:36;;;;;;;9.37;2.80;;;;;;;14.82;89.72;99558.69;4222252;28;20235;-69
2022/06/22 05:26:07;;;;;;;8.57;2.90;;;;;;;15.19;88.56;99562.84;4196289;28;20248;-67
2022/06/22 05:28:34;;;;;;;8.17;3.00;;;;;;;15.61;86.37;99561.00;4229381;28;20347;-67
2022/06/22 05:31:17;;;;;;;7.30;2.40;;;;;;;16.17;81.92;99569.91;4224422;28;20677;-68
2022/06/22 05:33:47;;;;;;;5.70;2.60;;;;;;;16.03;82.06;99559.13;4243252;28;20236;-69
2022/06/22 05:36:15;;;;;;;8.13;2.57;;;;;;;16.69;80.27;99562.94;4270380;28;20320;-67
2022/06/22 05:38:44;;;;;;;6.50;2.60;;;;;;;17.55;74.46;99572.78;4235882;28;20302;-68
2022/06/22 05:41:13;;;;;;;7.27;2.80;;;;;;;18.29;71.75;99573.34;4209844;28;20655;-69
2022/06/22 05:43:40;;;;;;;7.60;2.33;;;;;;;19.03;68.81;99570.94;4251541;28;23593;-68
2022/06/22 05:46:08;;;;;;;6.67;2.27;;;;;;;19.09;66.14;99572.75;4223723;28;20345;-69
2022/06/22 05:48:41;;;;;;;5.23;2.43;;;;;;;18.76;66.42;99584.63;4193065;28;20259;-69
2022/06/22 05:51:25;;;;;;;7.23;2.23;;;;;;;19.49;65.32;99593.94;4217577;28;20235;-67
2022/06/22 05:53:54;;;;;;;7.33;2.63;;;;;;;19.84;62.39;99585.25;4219569;28;20243;-70
2022/06/22 05:56:34;;;;;;;11.10;3.27;;;;;;;19.90;62.72;99589.72;4200583;28;20343;-69
2022/06/22 05:59:13;;;;;;;7.10;2.50;;;;;;;20.43;60.26;99592.53;4200828;28;20237;-70
2022/06/22 06:02:03;;;;;;;8.43;2.27;;;;;;;20.68;59.24;99597.00;4205231;28;20301;-68
2022/06/22 06:04:33;;;;;;;7.50;2.57;;;;;;;20.77;58.37;99592.91;4221285;28;20240;-71
2022/06/22 06:07:05;;;;;;;8.90;2.50;;;;;;;21.08;58.22;99586.34;4227960;28;21243;-70
2022/06/22 06:09:33;;;;;;;7.90;2.70;;;;;;;21.75;54.97;99595.97;4210706;28;20322;-67
2022/06/22 06:12:08;;;;;;;8.77;2.70;;;;;;;21.46;55.78;99592.38;4213707;28;20232;-69
2022/06/22 06:14:41;;;;;;;10.50;2.80;;;;;;;21.85;55.38;99593.47;4192938;28;20297;-70
2022/06/22 06:17:10;;;;;;;9.23;2.60;;;;;;;22.10;52.79;99601.28;4205900;28;22272;-68
2022/06/22 06:19:40;;;;;;;7.27;2.40;;;;;;;22.32;52.54;99597.94;4203160;28;21195;-67
2022/06/22 06:22:09;;;;;;;8.70;2.30;;;;;;;23.21;50.55;99599.19;4194725;28;20403;-65
2022/06/22 06:27:42;;;;;;;8.87;2.53;;;;;;;23.21;49.00;99597.28;4220409;28;20349;-66
2022/06/22 06:30:25;;;;;;;7.53;2.37;;;;;;;24.33;45.84;99603.34;4218620;28;20232;-67
2022/06/22 06:32:57;;;;;;;9.17;2.50;;;;;;;24.40;45.58;99611.31;4208939;28;21031;-66
2022/06/22 06:35:44;;;;;;;11.80;1.90;;;;;;;25.54;41.90;99611.97;4210060;28;21155;-67
2022/06/22 06:38:16;;;;;;;7.27;2.37;;;;;;;25.60;41.93;99605.47;4205185;28;20271;-67
2022/06/22 06:40:56;;;;;;;11.13;2.33;;;;;;;24.38;43.84;99599.84;4200055;28;20229;-66
2022/06/22 06:44:06;;;;;;;7.37;2.70;;;;;;;24.69;43.67;99590.09;4216683;28;20231;-67
2022/06/22 06:46:44;;;;;;;9.73;2.40;;;;;;;24.71;44.30;99589.84;4204048;28;22769;-67
2022/06/22 06:49:40;;;;;;;5.67;2.20;;;;;;;25.44;41.02;99598.31;4228139;28;22208;-66
2022/06/22 06:52:22;;;;;;;10.40;2.33;;;;;;;25.31;42.64;99586.00;4218910;28;20240;-66
2022/06/22 06:54:55;;;;;;;7.07;2.50;;;;;;;24.74;43.26;99578.44;4231246;28;20237;-66
2022/06/22 06:57:22;;;;;;;9.80;2.40;;;;;;;24.41;44.08;99580.31;4208222;28;20237;-65
2022/06/22 06:59:53;;;;;;;5.30;1.80;;;;;;;24.81;44.23;99582.59;4220286;28;21859;-67
2022/06/22 07:02:41;;;;;;;8.67;2.53;;;;;;;24.94;42.72;99583.25;4201119;28;20256;-66
2022/06/22 07:05:13;;;;;;;6.45;2.25;;;;;;;24.80;43.27;99591.03;4214932;28;20243;-65
2022/06/22 07:07:50;;;;;;;7.10;2.60;;;;;;;25.35;42.13;99597.16;4214757;28;20240;-65
2022/06/22 07:10:21;;;;;;;8.23;2.13;;;;;;;26.08;39.19;99592.63;4203517;28;20457;-72
2022/06/22 07:12:53;;;;;;;6.50;1.97;;;;;;;26.32;38.14;99605.78;4210438;28;21550;-67
2022/06/22 07:15:23;;;;;;;7.07;2.20;;;;;;;24.81;42.02;99582.59;4194388;28;20258;-69
2022/06/22 07:17:52;;;;;;;6.80;2.00;;;;;;;24.97;40.88;99590.88;4211451;28;22046;-73
2022/06/22 07:20:22;;;;;;;6.97;2.17;;;;;;;24.22;42.30;99591.53;4191476;28;20232;-73
2022/06/22 07:22:52;;;;;;;4.20;1.90;;;;;;;24.36;42.42;99596.56;4216219;28;20292;-71
2022/06/22 07:25:36;;;;;;;6.60;1.40;;;;;;;24.00;45.27;99585.31;4204582;28;20238;-71
2022/06/22 07:28:16;;;;;;;5.87;1.90;;;;;;;23.70;42.94;99577.59;4207261;28;21141;-72
2022/06/22 07:30:52;;;;;;;3.23;1.60;;;;;;;23.72;43.47;99586.31;4219351;28;26242;-73
2022/06/22 07:33:37;;;;;;;7.53;1.87;;;;;;;22.87;43.72;99580.16;4194108;28;20245;-71
2022/06/22 07:36:16;;;;;;;5.93;1.97;;;;;;;23.34;42.41;99585.25;4228190;28;20300;-72
2022/06/22 07:38:51;;;;;;;6.97;1.93;;;;;;;23.13;45.08;99587.69;4227611;28;20230;-73
2022/06/22 07:41:20;;;;;;;7.03;2.10;;;;;;;23.55;45.62;99580.91;4241279;28;20239;-72
2022/06/22 07:43:50;;;;;;;4.63;1.80;;;;;;;22.53;47.88;99572.00;4238922;28;20225;-73
2022/06/22 07:46:47;;;;;;;10.33;2.20;;;;;;;22.48;47.07;99566.50;4227950;28;20299;-70
2022/06/22 07:49:17;;;;;;;6.60;1.97;;;;;;;22.31;47.01;99578.16;4230724;28;20291;-72
2022/06/22 07:51:50;;;;;;;5.93;1.73;;;;;;;22.56;46.02;99579.66;4212242;28;20501;-71
2022/06/22 07:54:22;;;;;;;6.20;1.90;;;;;;;22.19;47.13;99582.75;4231974;28;20573;-69
2022/06/22 07:57:12;;;;;;;5.33;1.90;;;;;;;22.54;46.43;99577.16;4203777;28;26362;-71
2022/06/22 07:59:50;;;;;;;7.87;2.00;;;;;;;22.86;45.69;99575.81;4222136;28;21325;-50
2022/06/22 08:02:23;;;;;;;7.53;2.17;;;;;;;22.75;46.52;99581.06;4200831;28;20248;-59
2022/06/22 08:04:56;;;;;;;5.30;2.07;;;;;;;22.93;47.01;99580.00;4211051;28;20232;-64
2022/06/22 08:07:58;;;;;;;6.03;1.77;;;;;;;22.86;45.84;99570.38;4204447;28;20406;-64
2022/06/22 08:10:39;;;;;;;8.30;2.10;;;;;;;22.02;47.45;99568.34;4212462;28;20325;-64
2022/06/22 08:13:10;;;;;;;5.27;1.90;;;;;;;22.00;47.18;99570.47;4246051;28;20378;-66
2022/06/22 08:15:40;;;;;;;8.67;2.03;;;;;;;21.66;49.92;99567.63;4243560;28;20239;-69
2022/06/22 08:18:08;;;;;;;8.13;1.90;;;;;;;21.80;49.93;99573.59;4227624;28;21111;-68
2022/06/22 08:20:39;;;;;;;11.57;2.27;;;;;;;21.93;49.69;99570.59;4224571;28;20460;-69
2022/06/22 08:23:09;;;;;;;6.57;2.40;;;;;;;22.14;49.80;99578.03;4214278;28;20448;-68
2022/06/22 08:25:57;;;;;;;4.73;1.63;;;;;;;22.48;46.56;99580.06;4199284;28;21137;-68
2022/06/22 08:28:24;;;;;;;6.77;1.97;;;;;;;22.31;47.36;99580.84;4208051;28;20267;-70
2022/06/22 08:30:52;;;;;;;8.37;1.90;;;;;;;22.68;45.56;99583.09;4200017;28;20293;-69
2022/06/22 08:33:30;;;;;;;6.00;1.83;;;;;;;22.70;48.37;99578.25;4212611;28;20288;-69
2022/06/22 08:36:19;;;;;;;5.43;1.63;;;;;;;22.60;48.01;99572.69;4208821;28;20225;-66
2022/06/22 08:38:53;;;;;;;5.83;1.67;;;;;;;22.41;48.26;99571.25;4202300;28;21300;-66
2022/06/22 08:41:59;;;;;;;7.63;2.10;;;;;;;22.50;48.28;99570.63;4207451;28;21792;-67
2022/06/22 08:44:51;;;;;;;4.50;1.87;;;;;;;22.16;48.05;99569.69;4234644;28;20246;-66
2022/06/22 08:47:51;;;;;;;6.17;2.00;;;;;;;22.19;48.18;99571.91;4214802;28;20233;-66
2022/06/22 08:50:27;;;;;;;6.73;1.80;;;;;;;22.58;46.48;99574.81;4178669;28;20233;-66
2022/06/22 08:53:13;;;;;;;8.07;2.17;;;;;;;22.73;46.42;99577.78;4203482;28;20246;-66
2022/06/22 08:55:49;;;;;;;4.87;1.43;;;;;;;23.00;45.65;99579.03;4225542;28;20248;-63
2022/06/22 08:58:52;;;;;;;9.03;1.80;;;;;;;22.39;46.17;99571.50;4197959;28;20274;-66
2022/06/22 09:01:36;;;;;;;4.97;1.60;;;;;;;22.51;48.41;99576.84;4207640;28;20480;-66
2022/06/22 09:04:11;;;;;;;7.17;2.10;;;;;;;22.34;47.30;99577.66;4209157;28;20286;-67
2022/06/22 09:07:09;;;;;;;3.33;1.67;;;;;;;22.03;47.76;99578.94;4206470;28;20232;-66
2022/06/22 09:10:03;;;;;;;4.63;1.80;;;;;;;22.04;47.92;99582.47;4213670;28;20233;-66
2022/06/22 09:12:30;;;;;;;6.73;2.17;;;;;;;22.30;49.19;99581.09;4212497;28;20240;-64
2022/06/22 09:14:57;;;;;;;4.93;2.00;;;;;;;21.56;51.06;99580.94;4219319;28;20403;-68
2022/06/22 09:17:49;;;;;;;9.57;1.70;;;;;;;21.22;51.53;99578.00;4211421;28;20667;-68
2022/06/22 09:20:21;;;;;;;7.57;2.13;;;;;;;21.16;51.75;99571.63;4213038;28;20233;-69
2022/06/22 09:22:57;;;;;;;7.77;2.10;;;;;;;21.35;51.97;99579.63;4208909;28;20236;-65
2022/06/22 09:25:37;;;;;;;7.27;1.60;;;;;;;21.47;51.04;99586.72;4201473;28;23060;-68
2022/06/22 09:28:11;;;;;;;6.70;2.10;;;;;;;21.33;51.21;99585.31;4188409;28;21945;-66
2022/06/22 09:30:58;;;;;;;8.93;2.10;;;;;;;21.58;51.60;99590.47;4228446;28;20237;-67
2022/06/22 09:33:40;;;;;;;10.17;1.87;;;;;;;21.87;49.18;99588.66;4229553;28;20414;-67
2022/06/22 09:36:39;;;;;;;7.27;2.00;;;;;;;21.61;48.54;99586.44;4220373;28;20248;-66
2022/06/22 09:39:22;;;;;;;8.77;2.10;;;;;;;21.60;49.56;99587.53;4223986;28;20250;-68
2022/06/22 09:42:10;;;;;;;6.57;2.03;;;;;;;21.32;51.53;99580.94;4199604;28;20236;-66
2022/06/22 09:44:53;;;;;;;5.30;1.93;;;;;;;20.96;53.58;99580.13;4227022;28;20780;-67
2022/06/22 09:47:28;;;;;;;7.00;1.80;;;;;;;21.07;53.11;99578.47;4227794;28;20713;-66
2022/06/22 09:50:18;;;;;;;11.50;1.60;;;;;;;21.39;49.31;99581.63;4247382;28;21167;-67
2022/06/22 09:53:10;;;;;;;6.73;2.23;;;;;;;21.91;48.68;99583.56;4246298;28;20239;-68
2022/06/22 09:59:14;;;;;;;8.07;2.03;;;;;;;21.54;49.55;99580.34;4229882;28;20233;-66
2022/06/22 10:02:13;;;;;;;8.30;2.10;;;;;;;21.25;49.62;99591.06;4224166;28;20239;-66
2022/06/22 10:04:52;;;;;;;7.33;1.80;;;;;;;21.22;51.44;99586.13;4238920;28;21512;-69
2022/06/22 10:07:42;;;;;;;7.73;2.07;;;;;;;21.74;50.62;99588.91;4230652;28;21157;-66
2022/06/22 10:10:27;;;;;;;6.07;2.17;;;;;;;21.73;50.51;99587.28;4268271;28;20236;-68
2022/06/22 10:13:03;;;;;;;4.70;1.90;;;;;;;22.19;49.13;99587.34;4207508;28;20236;-66
2022/06/22 10:15:37;;;;;;;11.30;2.10;;;;;;;21.78;49.88;99590.09;4219382;28;20229;-66
2022/06/22 10:18:31;;;;;;;3.90;1.40;;;;;;;21.69;47.81;99588.81;4201624;28;20236;-69
2022/06/22 10:21:01;;;;;;;4.10;2.07;;;;;;;21.60;48.38;99588.34;4213831;28;20292;-68
2022/06/22 10:23:54;;;;;;;7.63;1.97;;;;;;;21.82;47.13;99588.53;4226653;28;20242;-66
2022/06/22 10:26:27;;;;;;;6.87;1.87;;;;;;;21.66;46.15;99597.41;4231265;28;20502;-66
2022/06/22 10:28:58;;;;;;;2.83;1.63;;;;;;;21.98;46.09;99595.06;4205653;28;20294;-68
2022/06/22 10:31:30;;;;;;;5.47;2.20;;;;;;;22.04;46.08;99598.72;4215145;28;20595;-67
2022/06/22 10:34:22;;;;;;;7.93;1.80;;;;;;;21.89;46.19;99597.34;4247436;28;20619;-68
2022/06/22 10:37:07;;;;;;;5.40;1.73;;;;;;;21.88;47.59;99598.41;4260631;28;20462;-70
2022/06/22 10:39:54;;;;;;;4.83;1.40;;;;;;;22.10;45.95;99598.59;4230477;28;20325;-66
2022/06/22 10:45:43;;;;;;;4.60;1.63;;;;;;;22.21;44.26;99599.63;4214192;28;21654;-68
2022/06/22 10:48:34;;;;;;;5.00;2.00;;;;;;;22.18;45.15;99596.56;4221254;28;20401;-65
2022/06/22 10:51:07;;;;;;;2.93;1.67;;;;;;;22.32;44.34;99596.03;4233851;28;20247;-66
2022/06/22 10:53:36;;;;;;;4.53;1.70;;;;;;;22.21;44.12;99588.78;4217000;28;20237;-67
2022/06/22 10:56:05;;;;;;;5.97;1.47;;;;;;;22.10;44.71;99584.19;4224635;28;26404;-67
2022/06/22 10:58:39;;;;;;;2.57;1.30;;;;;;;22.12;44.51;99590.19;4222186;28;20237;-66
2022/06/22 11:01:11;;;;;;;5.70;1.50;;;;;;;22.38;43.29;99588.00;4198270;28;20282;-67
2022/06/22 11:04:12;;;;;;;7.33;1.60;;;;;;;22.14;41.37;99596.19;4227771;28;21121;-68
2022/06/22 11:07:16;;;;;;;8.63;1.57;;;;;;;21.93;44.07;99587.66;4233987;28;20294;-66
2022/06/22 11:09:48;;;;;;;4.20;1.30;;;;;;;21.86;42.77;99592.41;4226671;28;22207;-67
2022/06/22 11:12:25;;;;;;;3.67;1.20;;;;;;;21.57;44.16;99580.72;4242603;28;20267;-67
2022/06/22 11:15:07;;;;;;;3.83;1.47;;;;;;;21.58;44.08;99582.34;4235634;28;20703;-66
2022/06/22 11:17:56;;;;;;;4.17;1.53;;;;;;;21.66;43.02;99571.16;4231793;28;27184;-66
2022/06/22 11:21:14;;;;;;;3.70;1.50;;;;;;;21.86;43.43;99573.44;4271653;28;20225;-68
2022/06/22 11:23:56;;;;;;;3.07;1.20;;;;;;;21.69;43.92;99572.56;4225456;28;20393;-67
2022/06/22 11:33:01;;;;;;;3.70;1.50;;;;;;;22.23;42.09;99573.09;4234932;28;20237;-67
2022/06/22 11:35:54;;;;;;;3.37;1.30;;;;;;;22.26;40.57;99569.91;4228637;28;20298;-67
2022/06/22 11:38:39;;;;;;;4.13;1.60;;;;;;;22.29;42.33;99569.44;4227511;28;20332;-68
2022/06/22 11:41:26;;;;;;;4.20;1.20;;;;;;;22.25;39.73;99579.09;4230921;28;20243;-67
2022/06/22 11:44:16;;;;;;;7.37;1.40;;;;;;;22.49;37.85;99579.81;4232721;28;20239;-67
2022/06/22 11:46:49;;;;;;;6.03;1.63;;;;;;;22.45;39.46;99577.81;4244453;28;20241;-67
2022/06/22 11:49:42;;;;;;;6.40;1.50;;;;;;;22.39;39.64;99563.38;4209094;28;20244;-66
2022/06/22 11:52:30;;;;;;;2.60;1.20;;;;;;;22.84;39.58;99577.94;4212615;28;20232;-66
2022/06/22 11:55:25;;;;;;;3.50;1.43;;;;;;;22.95;37.51;99590.63;4242239;28;20287;-67
2022/06/22 11:58:08;;;;;;;2.03;1.40;;;;;;;23.07;37.73;99582.41;4227779;28;22951;-68
2022/06/22 12:00:48;;;;;;;5.77;1.40;;;;;;;23.15;38.87;99579.25;4205345;28;20234;-67
2022/06/22 12:03:23;;;;;;;4.00;1.47;;;;;;;23.14;39.28;99578.44;4211050;28;20240;-67
2022/06/22 12:06:30;;;;;;;5.57;1.53;;;;;;;22.43;40.84;99585.38;4231559;28;20236;-66
2022/06/22 12:09:09;;;;;;;3.23;1.60;;;;;;;22.43;41.98;99579.94;4261750;28;20363;-67
2022/06/22 12:11:46;;;;;;;4.93;1.57;;;;;;;22.70;39.66;99591.81;4241093;28;22756;-69
2022/06/22 12:15:08;;;;;;;4.87;1.50;;;;;;;22.74;40.13;99587.56;4202233;28;20235;-70
2022/06/22 12:17:49;;;;;;;3.77;1.60;;;;;;;22.99;39.65;99585.53;4214595;28;20236;-68
2022/06/22 12:20:40;;;;;;;3.00;1.27;;;;;;;23.10;38.90;99590.88;4253144;28;21041;-69
2022/06/22 12:23:41;;;;;;;6.13;1.77;;;;;;;22.79;39.58;99588.72;4245637;28;21425;-69
2022/06/22 12:26:16;;;;;;;5.10;1.60;;;;;;;22.56;41.26;99585.06;4239759;28;20237;-68
2022/06/22 12:28:55;;;;;;;2.57;1.43;;;;;;;22.22;41.40;99585.03;4224470;28;20245;-67
2022/06/22 12:31:23;;;;;;;3.57;1.47;;;;;;;22.30;42.65;99581.91;4216384;28;20258;-67
2022/06/22 12:34:12;;;;;;;2.73;1.47;;;;;;;22.42;41.38;99583.75;4226459;28;20430;-67
2022/06/22 12:36:50;;;;;;;6.70;1.53;;;;;;;22.42;40.67;99572.91;4224949;28;20301;-67
2022/06/22 12:39:27;;;;;;;5.83;1.60;;;;;;;22.81;41.09;99579.25;4239382;28;20238;-67
2022/06/22 12:42:03;;;;;;;4.47;1.77;;;;;;;22.66;40.26;99579.81;4221490;28;21150;-67